createdAt,value
2023-03-25T00:01:29.963Z,7.81
2023-03-25T00:04:04.481Z,7.77
2023-03-25T00:06:37.978Z,7.73
2023-03-25T00:09:12.182Z,7.69
2023-03-25T00:11:45.790Z,7.66
2023-03-25T00:14:19.585Z,7.61
2023-03-25T00:16:53.437Z,7.58
2023-03-25T00:19:28.016Z,7.53
2023-03-25T00:22:01.843Z,7.46
2023-03-25T00:24:35.875Z,7.39
2023-03-25T00:27:08.702Z,7.37
2023-03-25T00:29:42.238Z,7.30
2023-03-25T00:32:16.487Z,7.27
2023-03-25T00:34:50.222Z,7.22
2023-03-25T00:37:25.888Z,7.18
2023-03-25T00:40:00.135Z,7.14
2023-03-25T00:42:35.141Z,7.11
2023-03-25T00:45:11.207Z,7.08
2023-03-25T00:47:44.591Z,7.04
2023-03-25T00:50:18.639Z,6.98
2023-03-25T00:52:53.824Z,6.93
2023-03-25T00:55:27.208Z,6.89
2023-03-25T00:58:00.857Z,6.84
2023-03-25T01:00:34.462Z,6.83
2023-03-25T01:03:09.920Z,6.80
2023-03-25T01:05:43.392Z,6.77
2023-03-25T01:08:18.074Z,6.74
2023-03-25T01:10:51.330Z,6.73
2023-03-25T01:13:25.634Z,6.68
2023-03-25T01:15:58.891Z,6.67
2023-03-25T01:18:35.028Z,6.64
2023-03-25T01:21:10.643Z,6.60
2023-03-25T01:23:44.653Z,6.58
2023-03-25T01:26:18.276Z,6.54
2023-03-25T01:28:51.423Z,6.52
2023-03-25T01:31:26.234Z,6.49
2023-03-25T01:33:59.676Z,6.46
2023-03-25T01:36:33.827Z,6.43
2023-03-25T01:39:08.636Z,6.40
2023-03-25T01:41:49.148Z,6.36
2023-03-25T01:44:58.434Z,6.33
2023-03-25T01:47:33.082Z,6.30
2023-03-25T01:50:08.947Z,6.27
2023-03-25T01:52:42.719Z,6.24
2023-03-25T01:55:18.151Z,6.23
2023-03-25T01:57:54.627Z,6.16
2023-03-25T02:00:28.889Z,6.12
2023-03-25T02:03:03.445Z,6.09
2023-03-25T02:05:43.906Z,6.05
2023-03-25T02:08:18.280Z,6.02
2023-03-25T02:10:52.518Z,5.99
2023-03-25T02:13:26.468Z,5.93
2023-03-25T02:16:29.590Z,5.91
2023-03-25T02:19:26.381Z,5.88
2023-03-25T02:22:43.314Z,5.93
2023-03-25T02:25:39.892Z,5.90
2023-03-25T02:28:26.386Z,5.79
2023-03-25T02:31:38.130Z,5.76
2023-03-25T02:34:46.394Z,5.71
2023-03-25T02:37:59.583Z,5.69
2023-03-25T02:40:41.769Z,5.67
2023-03-25T02:43:21.537Z,5.65
2023-03-25T02:46:01.122Z,5.61
2023-03-25T02:48:39.490Z,5.57
2023-03-25T02:51:19.324Z,5.51
2023-03-25T02:53:54.613Z,5.46
2023-03-25T02:56:33.315Z,5.49
2023-03-25T02:59:09.952Z,5.47
2023-03-25T03:01:45.765Z,5.43
2023-03-25T03:04:19.472Z,5.38
2023-03-25T03:06:54.909Z,5.36
2023-03-25T03:09:39.717Z,5.34
2023-03-25T03:12:29.587Z,5.33
2023-03-25T03:15:17.422Z,5.32
2023-03-25T03:17:58.532Z,5.30
2023-03-25T03:20:41.076Z,5.27
2023-03-25T03:23:15.225Z,5.25
2023-03-25T03:25:54.353Z,5.23
2023-03-25T03:28:34.300Z,5.19
2023-03-25T03:31:13.196Z,5.17
2023-03-25T03:34:11.179Z,5.12
2023-03-25T03:36:49.582Z,5.09
2023-03-25T03:39:29.771Z,5.07
2023-03-25T03:42:07.995Z,5.05
2023-03-25T03:44:45.617Z,5.04
2023-03-25T03:47:23.932Z,5.03
2023-03-25T03:50:01.308Z,5.01
2023-03-25T03:52:38.746Z,4.99
2023-03-25T03:55:15.770Z,4.99
2023-03-25T03:57:56.117Z,4.97
2023-03-25T04:00:34.291Z,4.95
2023-03-25T04:03:14.779Z,4.94
2023-03-25T04:05:55.159Z,4.92
2023-03-25T04:08:35.825Z,4.90
2023-03-25T04:11:18.176Z,4.88
2023-03-25T04:13:51.004Z,4.92
2023-03-25T04:16:24.940Z,4.88
2023-03-25T04:18:58.772Z,4.90
2023-03-25T04:21:31.966Z,4.86
2023-03-25T04:24:08.419Z,4.88
2023-03-25T04:26:42.466Z,4.87
2023-03-25T04:29:15.905Z,4.73
2023-03-25T04:31:50.882Z,4.67
2023-03-25T04:34:24.910Z,4.64
2023-03-25T04:36:59.065Z,4.63
2023-03-25T04:39:32.888Z,4.61
2023-03-25T04:42:06.785Z,4.61
2023-03-25T04:44:40.501Z,4.62
2023-03-25T04:47:18.126Z,4.59
2023-03-25T04:49:51.587Z,4.61
2023-03-25T04:52:25.611Z,4.62
2023-03-25T04:54:58.996Z,4.61
2023-03-25T04:57:32.843Z,4.62
2023-03-25T05:00:07.833Z,4.61
2023-03-25T05:02:46.242Z,4.61
2023-03-25T05:05:21.564Z,4.63
2023-03-25T05:07:58.535Z,4.65
2023-03-25T05:10:32.650Z,4.70
2023-03-25T05:13:07.828Z,4.75
2023-03-25T05:15:41.295Z,4.82
2023-03-25T05:18:17.271Z,4.88
2023-03-25T05:20:51.776Z,4.95
2023-03-25T05:23:25.170Z,5.02
2023-03-25T05:25:58.736Z,5.11
2023-03-25T05:28:32.145Z,5.21
2023-03-25T05:31:08.626Z,5.28
2023-03-25T05:33:43.718Z,5.40
2023-03-25T05:36:17.789Z,5.51
2023-03-25T05:38:51.466Z,5.64
2023-03-25T05:41:32.927Z,5.73
2023-03-25T05:44:07.187Z,5.86
2023-03-25T05:59:22.116Z,6.79
2023-03-25T06:01:55.532Z,6.99
2023-03-25T06:04:29.313Z,6.97
2023-03-25T07:11:26.615Z,11.57
2023-03-25T07:57:44.574Z,14.80
2023-03-25T08:00:19.004Z,14.94
2023-03-25T08:02:53.261Z,15.29
2023-03-25T08:08:01.255Z,15.29
2023-03-25T08:28:27.610Z,17.15
2023-03-25T08:31:02.798Z,17.30
2023-03-25T08:33:41.368Z,17.50
2023-03-25T08:36:20.431Z,17.69
2023-03-25T08:38:54.353Z,17.85
2023-03-25T08:41:28.145Z,17.98
2023-03-25T08:44:01.725Z,18.09
2023-03-25T08:46:35.383Z,18.17
2023-03-25T08:49:09.050Z,18.31
2023-03-25T08:51:42.851Z,18.43
2023-03-25T08:54:16.456Z,18.51
2023-03-25T08:56:50.525Z,18.57
2023-03-25T08:59:24.794Z,18.66
2023-03-25T09:02:00.789Z,18.72
2023-03-25T09:04:34.748Z,18.82
2023-03-25T09:07:12.586Z,18.91
2023-03-25T09:09:46.043Z,19.03
2023-03-25T09:12:19.503Z,19.12
2023-03-25T09:14:52.831Z,19.22
2023-03-25T09:17:27.528Z,19.32
2023-03-25T09:20:01.003Z,19.45
2023-03-25T09:22:34.323Z,19.54
2023-03-25T09:25:10.937Z,19.66
2023-03-25T09:27:43.896Z,19.77
2023-03-25T09:30:19.661Z,19.83
2023-03-25T09:32:53.186Z,19.87
2023-03-25T09:35:26.775Z,19.89
2023-03-25T09:38:00.196Z,19.93
2023-03-25T09:40:35.789Z,19.98
2023-03-25T09:43:22.498Z,20.03
2023-03-25T09:45:58.290Z,20.10
2023-03-25T09:48:38.331Z,20.17
2023-03-25T09:51:19.579Z,20.27
2023-03-25T09:53:57.491Z,20.38
2023-03-25T09:56:41.895Z,20.47
2023-03-25T09:59:19.828Z,20.57
2023-03-25T10:02:03.600Z,20.70
2023-03-25T10:04:57.460Z,20.82
2023-03-25T10:07:46.227Z,20.96
2023-03-25T10:10:27.184Z,21.07
2023-03-25T10:13:08.913Z,21.18
2023-03-25T10:15:46.249Z,21.31
2023-03-25T10:18:39.121Z,21.43
2023-03-25T10:21:18.245Z,21.56
2023-03-25T10:23:59.214Z,21.65
2023-03-25T10:26:38.692Z,21.74
2023-03-25T10:29:16.989Z,21.85
2023-03-25T10:31:54.373Z,21.97
2023-03-25T10:34:37.580Z,22.09
2023-03-25T10:37:18.367Z,22.23
2023-03-25T10:39:52.318Z,22.35
2023-03-25T10:42:33.741Z,22.45
2023-03-25T10:45:14.506Z,22.50
2023-03-25T10:47:51.418Z,22.55
2023-03-25T10:50:26.361Z,22.57
2023-03-25T10:53:00.301Z,22.54
2023-03-25T10:55:37.622Z,22.53
2023-03-25T10:58:12.672Z,22.52
2023-03-25T11:00:46.008Z,22.55
2023-03-25T11:03:23.664Z,22.56
2023-03-25T11:05:57.121Z,22.55
2023-03-25T11:08:30.731Z,22.57
2023-03-25T11:11:06.262Z,22.61
2023-03-25T11:13:41.714Z,22.62
2023-03-25T11:16:16.073Z,22.65
2023-03-25T11:18:49.756Z,22.67
2023-03-25T11:21:23.968Z,22.68
2023-03-25T11:23:57.956Z,22.65
2023-03-25T11:26:38.727Z,22.61
2023-03-25T11:29:16.950Z,22.61
2023-03-25T11:31:59.423Z,22.61
2023-03-25T11:34:33.321Z,22.64
2023-03-25T11:37:17.505Z,22.69
2023-03-25T11:39:55.781Z,22.77
2023-03-25T11:42:34.417Z,22.83
2023-03-25T11:45:20.390Z,22.90
2023-03-25T11:47:54.944Z,22.96
2023-03-25T11:50:30.718Z,22.98
2023-03-25T11:53:06.223Z,22.95
2023-03-25T11:55:47.086Z,22.98
2023-03-25T11:58:23.532Z,23.02
2023-03-25T12:01:05.496Z,23.05
2023-03-25T12:03:39.827Z,23.10
2023-03-25T12:06:20.466Z,23.11
2023-03-25T12:08:55.645Z,23.09
2023-03-25T12:11:34.064Z,23.07
2023-03-25T12:14:27.699Z,23.06
2023-03-25T12:17:07.718Z,23.03
2023-03-25T12:19:54.425Z,23.05
2023-03-25T12:22:46.424Z,23.04
2023-03-25T12:25:33.990Z,23.06
2023-03-25T12:28:32.480Z,23.06
2023-03-25T12:31:11.579Z,23.12
2023-03-25T12:33:59.642Z,23.17
2023-03-25T12:36:45.732Z,23.21
2023-03-25T12:39:43.333Z,23.27
2023-03-25T12:42:29.792Z,23.35
2023-03-25T12:45:23.938Z,23.40
2023-03-25T12:48:03.991Z,23.44
2023-03-25T12:50:49.828Z,23.49
2023-03-25T12:53:46.250Z,23.54
2023-03-25T12:56:37.806Z,23.57
2023-03-25T12:59:38.647Z,23.63
2023-03-25T13:02:31.822Z,23.63
2023-03-25T13:05:17.655Z,23.65
2023-03-25T13:07:55.986Z,23.68
2023-03-25T13:10:35.567Z,23.64
2023-03-25T13:13:15.746Z,23.60
2023-03-25T13:15:54.659Z,23.56
2023-03-25T13:18:33.000Z,23.53
2023-03-25T13:21:14.187Z,23.48
2023-03-25T13:23:54.129Z,23.42
2023-03-25T13:26:31.624Z,23.40
2023-03-25T13:29:09.177Z,23.37
2023-03-25T13:31:47.061Z,23.35
2023-03-25T13:34:30.067Z,23.33
2023-03-25T13:37:18.061Z,23.25
2023-03-25T13:40:04.379Z,23.22
2023-03-25T13:42:44.441Z,23.17
2023-03-25T13:45:21.433Z,23.09
2023-03-25T13:48:03.870Z,23.10
2023-03-25T13:50:38.010Z,23.11
2023-03-25T13:53:20.317Z,23.12
2023-03-25T13:56:15.115Z,23.07
2023-03-25T13:59:06.512Z,23.08
2023-03-25T14:01:54.940Z,23.02
2023-03-25T14:04:49.128Z,22.99
2023-03-25T14:07:59.427Z,22.99
2023-03-25T14:11:03.192Z,22.89
2023-03-25T14:13:41.232Z,22.81
2023-03-25T14:16:17.462Z,22.75
2023-03-25T14:18:54.086Z,22.71
2023-03-25T14:21:34.219Z,22.70
2023-03-25T14:24:13.040Z,22.68
2023-03-25T14:26:52.303Z,22.67
2023-03-25T14:29:37.819Z,22.69
2023-03-25T14:32:32.654Z,22.68
2023-03-25T14:35:41.878Z,22.65
2023-03-25T14:38:55.123Z,22.54
2023-03-25T14:41:59.097Z,22.44
2023-03-25T14:44:33.505Z,22.30
2023-03-25T14:47:33.071Z,22.19
2023-03-25T14:50:31.026Z,22.11
2023-03-25T14:53:11.901Z,21.99
2023-03-25T14:55:48.696Z,21.88
2023-03-25T14:58:25.314Z,21.76
2023-03-25T15:01:01.142Z,21.62
2023-03-25T15:03:37.488Z,21.49
2023-03-25T15:06:16.465Z,21.36
2023-03-25T15:08:59.729Z,21.30
2023-03-25T15:11:37.471Z,21.21
2023-03-25T15:14:15.495Z,21.10
2023-03-25T15:17:05.030Z,21.02
2023-03-25T15:20:27.741Z,20.91
2023-03-25T15:23:33.128Z,20.79
2023-03-25T15:26:10.977Z,20.68
2023-03-25T15:29:11.549Z,20.61
2023-03-25T15:32:10.035Z,20.56
2023-03-25T15:35:14.804Z,20.47
2023-03-25T15:38:07.200Z,20.37
2023-03-25T15:40:57.770Z,20.32
2023-03-25T15:44:14.988Z,20.23
2023-03-25T15:47:22.192Z,20.13
2023-03-25T15:50:12.959Z,20.04
2023-03-25T15:53:35.907Z,19.95
2023-03-25T15:56:17.832Z,19.86
2023-03-25T15:58:58.906Z,19.79
2023-03-25T16:01:34.498Z,19.72
2023-03-25T16:04:12.865Z,19.63
2023-03-25T16:06:50.747Z,19.59
2023-03-25T16:09:28.695Z,19.53
2023-03-25T16:12:04.576Z,19.44
2023-03-25T16:14:39.434Z,19.37
2023-03-25T16:17:16.676Z,19.33
2023-03-25T16:19:53.221Z,19.29
2023-03-25T16:22:30.514Z,19.23
2023-03-25T16:25:06.798Z,19.17
2023-03-25T16:27:45.643Z,19.11
2023-03-25T16:30:29.268Z,19.04
2023-03-25T16:33:17.469Z,19.00
2023-03-25T16:35:56.650Z,18.92
2023-03-25T16:38:30.902Z,18.86
2023-03-25T16:41:05.792Z,18.82
2023-03-25T16:43:39.529Z,18.78
2023-03-25T16:46:16.407Z,18.71
2023-03-25T16:48:55.094Z,18.66
2023-03-25T16:51:32.329Z,18.60
2023-03-25T16:54:13.383Z,18.56
2023-03-25T16:56:47.014Z,18.50
2023-03-25T16:59:24.432Z,18.46
2023-03-25T17:01:59.659Z,18.43
2023-03-25T17:04:42.176Z,18.39
2023-03-25T17:07:21.109Z,18.36
2023-03-25T17:09:56.970Z,18.32
2023-03-25T17:12:31.964Z,18.30
2023-03-25T17:15:09.485Z,18.28
2023-03-25T17:17:49.718Z,18.25
2023-03-25T17:20:28.271Z,18.23
2023-03-25T17:23:04.583Z,18.18
2023-03-25T17:25:52.087Z,18.14
2023-03-25T17:28:33.884Z,18.09
2023-03-25T17:31:22.047Z,18.05
2023-03-25T17:34:00.696Z,17.97
2023-03-25T17:36:36.445Z,17.94
2023-03-25T17:39:19.112Z,17.90
2023-03-25T17:41:59.161Z,17.86
2023-03-25T17:44:37.474Z,17.83
2023-03-25T17:47:14.713Z,17.81
2023-03-25T17:49:48.346Z,17.77
2023-03-25T17:52:21.745Z,17.76
2023-03-25T17:54:55.342Z,17.74
2023-03-25T17:57:28.797Z,17.71
2023-03-25T18:00:02.202Z,17.65
2023-03-25T18:02:41.846Z,17.59
2023-03-25T18:05:15.982Z,17.54
2023-03-25T18:07:49.482Z,17.50
2023-03-25T18:10:25.710Z,17.44
2023-03-25T18:12:59.345Z,17.40
2023-03-25T18:15:33.454Z,17.34
2023-03-25T18:18:08.216Z,17.29
2023-03-25T18:20:41.672Z,17.25
2023-03-25T18:23:15.837Z,17.22
2023-03-25T18:25:49.405Z,17.18
2023-03-25T18:28:22.894Z,17.12
2023-03-25T18:30:58.873Z,17.08
2023-03-25T18:33:34.912Z,17.03
2023-03-25T18:36:10.690Z,16.95
2023-03-25T18:38:44.716Z,16.91
2023-03-25T18:41:18.563Z,16.86
2023-03-25T18:43:52.184Z,16.80
2023-03-25T18:46:25.777Z,16.76
2023-03-25T18:49:03.060Z,16.71
2023-03-25T18:51:37.670Z,16.64
2023-03-25T18:54:11.084Z,16.58
2023-03-25T18:56:44.629Z,16.52
2023-03-25T18:59:20.792Z,16.47
2023-03-25T19:01:54.194Z,16.42
2023-03-25T19:04:29.776Z,16.36
2023-03-25T19:07:04.227Z,16.30
2023-03-25T19:09:37.594Z,16.24
2023-03-25T19:12:12.132Z,16.15
2023-03-25T19:14:45.404Z,16.10
2023-03-25T19:17:19.027Z,16.02
2023-03-25T19:19:52.401Z,15.95
2023-03-25T19:22:26.220Z,15.87
2023-03-25T19:25:00.101Z,15.80
2023-03-25T19:27:33.637Z,15.72
2023-03-25T19:30:09.118Z,15.61
2023-03-25T19:32:44.306Z,15.54
2023-03-25T19:35:19.139Z,15.46
2023-03-25T19:37:52.540Z,15.38
2023-03-25T19:40:28.762Z,15.30
2023-03-25T19:43:05.396Z,15.21
2023-03-25T19:45:38.840Z,15.13
2023-03-25T19:48:12.440Z,15.07
2023-03-25T19:50:45.632Z,14.99
2023-03-25T19:53:18.607Z,14.92
2023-03-25T19:55:52.983Z,14.83
2023-03-25T19:58:27.469Z,14.76
2023-03-25T20:01:01.748Z,14.71
2023-03-25T20:03:36.586Z,14.63
2023-03-25T20:06:11.554Z,14.58
2023-03-25T20:08:45.163Z,14.55
2023-03-25T20:11:18.731Z,14.47
2023-03-25T20:13:52.568Z,14.41
2023-03-25T20:16:28.007Z,14.36
2023-03-25T20:19:01.295Z,14.32
2023-03-25T20:21:34.976Z,14.28
2023-03-25T20:24:09.509Z,14.26
2023-03-25T20:26:42.806Z,14.21
2023-03-25T20:29:17.851Z,14.18
2023-03-25T20:31:51.339Z,14.16
2023-03-25T20:34:24.823Z,14.12
2023-03-25T20:36:58.226Z,14.07
2023-03-25T20:39:32.019Z,14.04
2023-03-25T20:42:05.823Z,14.01
2023-03-25T20:44:39.456Z,13.97
2023-03-25T20:47:13.651Z,13.93
2023-03-25T20:49:47.267Z,13.91
2023-03-25T20:52:21.049Z,13.87
2023-03-25T20:54:55.786Z,13.86
2023-03-25T20:57:29.343Z,13.81
2023-03-25T21:00:02.740Z,13.76
2023-03-25T21:02:36.118Z,13.72
2023-03-25T21:05:11.245Z,13.67
2023-03-25T21:07:44.858Z,13.61
2023-03-25T21:10:20.360Z,13.54
2023-03-25T21:12:53.733Z,13.49
2023-03-25T21:15:27.544Z,13.42
2023-03-25T21:18:01.225Z,13.37
2023-03-25T21:20:34.733Z,13.32
2023-03-25T21:23:10.003Z,13.28
2023-03-25T21:25:43.572Z,13.25
2023-03-25T21:28:18.161Z,13.21
2023-03-25T21:31:03.490Z,13.17
2023-03-25T21:33:38.576Z,13.11
2023-03-25T21:36:14.822Z,13.07
2023-03-25T21:38:48.775Z,13.03
2023-03-25T21:41:22.435Z,13.00
2023-03-25T21:43:55.492Z,12.97
2023-03-25T21:46:29.571Z,12.91
2023-03-25T21:49:04.565Z,12.88
2023-03-25T21:51:42.924Z,12.84
2023-03-25T21:54:16.316Z,12.82
2023-03-25T21:56:55.132Z,12.78
2023-03-25T21:59:28.840Z,12.76
2023-03-25T22:02:02.446Z,12.71
2023-03-25T22:04:37.877Z,12.65
2023-03-25T22:07:11.244Z,12.60
2023-03-25T22:09:44.700Z,12.55
2023-03-25T22:12:18.266Z,12.51
2023-03-25T22:14:51.947Z,12.45
2023-03-25T22:17:25.310Z,12.41
2023-03-25T22:19:58.660Z,12.36
2023-03-25T22:22:31.681Z,12.32
2023-03-25T22:25:05.643Z,12.29
2023-03-25T22:27:39.652Z,12.26
2023-03-25T22:30:16.937Z,12.22
2023-03-25T22:32:50.399Z,12.17
2023-03-25T22:35:24.136Z,12.14
2023-03-25T22:37:57.855Z,12.09
2023-03-25T22:40:31.142Z,12.06
2023-03-25T22:43:04.731Z,12.03
2023-03-25T22:45:38.193Z,12.01
2023-03-25T22:48:11.714Z,11.98
2023-03-25T22:50:45.733Z,11.93
2023-03-25T22:53:19.540Z,11.92
2023-03-25T22:55:55.458Z,11.88
2023-03-25T22:58:31.636Z,11.86
2023-03-25T23:01:07.633Z,11.85
2023-03-25T23:03:41.666Z,11.84
2023-03-25T23:06:15.672Z,11.82
2023-03-25T23:08:49.139Z,11.80
2023-03-25T23:11:25.592Z,11.78
2023-03-25T23:14:01.862Z,11.76
2023-03-25T23:16:35.990Z,11.71
2023-03-25T23:19:10.967Z,11.67
2023-03-25T23:21:44.727Z,11.65
2023-03-25T23:24:18.110Z,11.60
2023-03-25T23:26:51.581Z,11.55
2023-03-25T23:29:25.122Z,11.52
2023-03-25T23:31:58.553Z,11.49
2023-03-25T23:34:31.935Z,11.47
2023-03-25T23:37:06.739Z,11.44
2023-03-25T23:39:42.153Z,11.42
2023-03-25T23:42:15.972Z,11.39
2023-03-25T23:44:49.935Z,11.38
2023-03-25T23:47:23.430Z,11.37
2023-03-25T23:49:58.275Z,11.37
2023-03-25T23:52:33.631Z,11.37
2023-03-25T23:55:12.538Z,11.37
2023-03-25T23:57:46.164Z,11.36
